Latest Weather Observations for Avalon

IDV60801

Issued at 8:02 pm EST Tuesday 26 July 2016 (issued every 30 minutes, with the page automatically refreshed every 10 minutes)

About weather observations | Map of weather stations | Latest weather observations for VIC | Other Formats
Station Details ID: 087113 Name: AVALON AIRPORT Lat: -38.03 Lon: 144.48 Height: 10.6 m
Data from the previous 72 hours. | See also: Recent months at Avalon
Date/Time
EST
Temp
°C
App
Temp
°C
Dew
Point
°C
Rel
Hum
%
Delta-T
°C
Wind Press
QNH
hPa
Press
MSL
hPa
Rain since
9am
mm
Dir  Spd
km/h
Gust
km/h
Spd
kts
Gust
kts
26/08:00pm 9.0 3.1 4.0 71 2.2 N 24 35 13 19 1006.5 1006.5 0.0
26/07:30pm 9.1 3.3 4.3 72 2.1 N 24 33 13 18 1006.7 1006.7 0.0
26/07:00pm 8.9 3.5 4.3 73 2.0 N 22 28 12 15 1006.8 1006.8 0.0
26/06:30pm 8.9 3.0 4.1 72 2.1 N 24 35 13 19 1006.9 1006.9 0.0
26/06:00pm 8.5 3.0 4.1 74 1.9 N 22 28 12 15 1007.1 1007.1 0.0
26/05:30pm 9.1 3.2 4.1 71 2.2 N 24 32 13 17 1007.6 1007.6 0.0
26/05:00pm 9.7 3.1 4.1 68 2.5 N 28 39 15 21 1007.7 1007.7 0.0
26/04:30pm 9.8 3.2 4.0 67 2.6 N 28 37 15 20 1007.7 1007.7 0.0
26/04:00pm 10.0 2.6 4.0 66 2.7 NNW 32 44 17 24 1008.1 1008.1 0.0
26/03:30pm 10.2 2.6 3.7 64 2.9 NNW 33 43 18 23 1008.5 1008.5 0.0
26/03:00pm 10.0 3.4 4.0 66 2.7 NNW 28 39 15 21 1008.9 1008.9 0.0
26/02:30pm 9.9 3.3 4.3 68 2.5 NNW 28 39 15 21 1009.4 1009.4 0.0
26/02:00pm 9.6 2.2 4.0 68 2.5 NNW 32 37 17 20 1009.9 1009.9 0.0
26/01:30pm 9.5 2.4 3.7 67 2.5 NNW 30 41 16 22 1010.3 1010.3 0.0
26/01:00pm 9.7 2.6 3.7 66 2.6 NNW 30 37 16 20 1010.6 1010.6 0.0
26/12:30pm 9.7 1.7 3.9 67 2.5 NNW 35 46 19 25 1011.2 1011.2 0.0
26/12:00pm 9.2 1.2 3.6 68 2.4 NNW 35 44 19 24 1011.8 1011.8 0.0
26/11:30am 9.2 1.6 4.0 70 2.3 NNW 33 44 18 24 1012.1 1012.1 0.0
26/11:00am 9.1 2.1 3.9 70 2.3 NNW 30 39 16 21 1012.0 1012.0 0.0
26/10:30am 8.8 1.3 3.4 69 2.3 NNW 32 41 17 22 1012.2 1012.2 0.0
26/10:00am 8.3 1.9 3.4 71 2.1 NNW 26 35 14 19 1012.1 1012.1 0.0
26/09:30am 8.0 2.0 3.3 72 2.0 NNW 24 32 13 17 1012.0 1012.0 0.0
26/09:00am 7.2 1.2 3.1 75 1.7 NNW 24 28 13 15 1012.0 1012.0 4.2
26/08:30am 6.9 0.8 3.0 76 1.6 NNW 24 30 13 16 1012.0 1012.0 4.2
26/08:00am 4.9 -0.5 2.6 85 0.9 N 20 24 11 13 1011.7 1011.7 4.2
26/07:30am 4.9 0.8 2.4 84 1.0 NNE 13 19 7 10 1011.7 1011.7 4.2
26/07:00am 5.9 0.8 2.9 81 1.2 WNW 19 22 10 12 1011.0 1011.0 4.2
26/06:30am 6.7 1.6 2.8 76 1.6 WNW 19 24 10 13 1010.8 1010.8 4.2
26/06:00am 6.9 0.0 2.6 74 1.8 WNW 28 37 15 20 1010.3 1010.3 4.2
26/05:30am 6.7 0.5 2.4 74 1.8 WNW 24 32 13 17 1009.7 1009.7 4.2
26/05:00am 6.7 -0.3 2.2 73 1.8 WNW 28 39 15 21 1009.4 1009.4 4.2
26/04:30am 6.9 -0.4 2.4 73 1.9 WNW 30 48 16 26 1009.0 1009.0 4.2
26/04:24am 6.9 0.0 2.4 73 1.9 WNW 28 48 15 26 1008.9 1008.9 4.2
26/04:00am 7.0 -0.3 2.3 72 1.9 WNW 30 37 16 20 1008.9 1008.9 4.2
26/03:30am 7.1 -0.8 2.4 72 1.9 WNW 33 43 18 23 1008.6 1008.6 4.2
26/03:07am 7.1 -1.2 2.2 71 2.0 WNW 35 54 19 29 1008.5 1008.5 4.2
26/03:00am 7.1 -1.6 2.2 71 2.0 WNW 37 46 20 25 1008.5 1008.5 4.2
26/02:30am 7.4 -0.9 2.1 69 2.2 WNW 35 46 19 25 1008.3 1008.3 4.2
26/02:00am 7.5 -1.9 2.4 70 2.1 WNW 41 54 22 29 1008.1 1008.1 4.2
26/01:39am 7.6 -2.8 2.3 69 2.2 WNW 46 65 25 35 1008.1 1008.1 4.2
26/01:30am 7.7 -1.3 2.2 68 2.3 WNW 39 54 21 29 1008.1 1008.1 4.2
26/01:10am 7.7 0.0 2.4 69 2.2 WNW 32 52 17 28 1008.1 1008.1 4.2
26/01:00am 7.6 -0.3 2.3 69 2.2 WNW 33 43 18 23 1007.8 1007.8 4.2
26/12:30am 7.8 -0.5 2.1 67 2.4 WNW 35 48 19 26 1007.6 1007.6 4.2
26/12:00am 7.9 -0.7 2.4 68 2.3 WNW 37 46 20 25 1007.2 1007.2 4.2
 
Date/Time
EST
Temp
°C
App
Temp
°C
Dew
Point
°C
Rel
Hum
%
Delta-T
°C
Wind Press
QNH
hPa
Press
MSL
hPa
Rain since
9am
mm
Dir  Spd
km/h
Gust
km/h
Spd
kts
Gust
kts
25/11:30pm 7.8 -1.2 2.7 70 2.1 WNW 39 54 21 29 1006.9 1006.9 4.2
25/11:11pm 7.8 -1.2 2.5 69 2.2 WNW 39 57 21 31 1006.8 1006.8 4.2
25/11:00pm 7.6 -1.4 2.7 71 2.1 WNW 39 54 21 29 1006.9 1006.9 4.2
25/10:30pm 7.8 -1.5 2.9 71 2.1 WNW 41 56 22 30 1006.4 1006.4 4.2
25/10:00pm 8.1 -2.9 3.2 71 2.1 WNW 50 63 27 34 1005.9 1005.9 4.2
25/09:40pm 8.2 -1.6 3.1 70 2.2 WNW 44 63 24 34 1005.8 1005.8 4.2
25/09:30pm 8.3 -1.5 3.4 71 2.1 WNW 44 59 24 32 1005.6 1005.6 4.2
25/09:13pm 8.8 -0.4 3.4 69 2.3 NW 41 59 22 32 1005.3 1005.3 4.2
25/09:00pm 8.9 -0.2 3.9 71 2.2 WNW 41 56 22 30 1005.4 1005.4 4.2
25/08:41pm 9.0 -0.5 4.0 71 2.2 WNW 43 61 23 33 1005.2 1005.2 4.2
25/08:30pm 8.9 -0.1 4.5 74 1.9 WNW 41 52 22 28 1005.0 1005.0 4.2
25/08:00pm 8.7 -1.6 4.5 75 1.9 WNW 48 67 26 36 1004.7 1004.7 4.2
25/07:30pm 9.6 0.1 4.8 72 2.1 WNW 44 70 24 38 1004.2 1004.2 4.2
25/07:28pm 9.8 0.5 5.0 72 2.2 WNW 43 70 23 38 1004.0 1004.0 4.2
25/07:00pm 9.5 0.2 5.1 74 2.0 NW 43 59 23 32 1003.4 1003.4 4.2
25/06:57pm 9.6 0.7 5.0 73 2.1 NW 41 59 22 32 1003.2 1003.2 4.2
25/06:30pm 8.6 1.0 5.9 83 1.2 NW 35 46 19 25 1003.2 1003.2 4.2
25/06:16pm 8.2 -1.0 5.5 83 1.2 NW 43 59 23 32 1003.2 1003.2 4.2
25/06:15pm 8.2 -1.0 5.5 83 1.2 NW 43 59 23 32 1003.3 1003.3 4.2
25/06:00pm 8.8 -2.1 7.4 91 0.7 WNW 54 74 29 40 1004.1 1004.1 3.6
25/05:59pm 8.8 -1.6 7.6 92 0.6 WNW 52 74 28 40 1004.1 1004.1 3.4
25/05:55pm 9.1 -0.6 7.5 90 0.8 WNW 48 74 26 40 1004.0 1004.0 3.2
25/05:44pm 10.3 1.9 8.9 91 0.7 WNW 43 65 23 35 1003.3 1003.3 1.8
25/05:40pm 10.5 2.4 8.8 89 0.8 NW 41 56 22 30 1003.2 1003.2 1.0
25/05:30pm 11.0 2.4 8.2 83 1.4 NW 43 56 23 30 1002.6 1002.6 0.2
25/05:04pm 12.2 3.0 6.3 67 2.8 NNW 44 63 24 34 1001.1 1001.1 0.0
25/05:00pm 12.4 3.2 6.5 67 2.8 NNW 44 61 24 33 1001.0 1001.0 0.0
25/04:36pm 12.3 4.1 6.4 67 2.8 N 39 61 21 33 1001.1 1001.1 0.0
25/04:30pm 12.1 3.9 6.6 69 2.6 N 39 50 21 27 1001.1 1001.1 0.0
25/04:21pm 12.3 3.3 6.6 68 2.7 N 43 61 23 33 1001.3 1001.3 0.0
25/04:00pm 13.1 4.5 6.5 64 3.2 N 41 57 22 31 1001.9 1001.9 0.0
25/03:38pm 12.6 4.4 6.6 67 2.9 N 39 57 21 31 1002.6 1002.6 0.0
25/03:30pm 12.6 3.5 6.0 64 3.1 N 43 57 23 31 1002.6 1002.6 0.0
25/03:02pm 13.0 3.8 5.4 60 3.5 NNW 43 61 23 33 1002.9 1002.9 0.0
25/03:00pm 13.1 4.3 5.5 60 3.6 NNW 41 57 22 31 1002.9 1002.9 0.0
25/02:30pm 13.3 4.8 5.2 58 3.8 NNW 39 56 21 30 1003.5 1003.5 0.0
25/02:00pm 13.1 3.8 4.8 57 3.8 NNW 43 56 23 30 1003.7 1003.7 0.0
25/01:30pm 13.7 5.1 4.8 55 4.1 NNW 39 54 21 29 1004.3 1004.3 0.0
25/01:00pm 13.7 5.8 4.6 54 4.2 NW 35 52 19 28 1005.8 1005.8 0.0
25/12:47pm 13.6 5.8 4.7 55 4.1 NW 35 54 19 29 1006.1 1006.1 0.0
25/12:30pm 13.4 6.1 5.3 58 3.8 NW 33 43 18 23 1006.6 1006.6 0.0
25/12:00pm 12.8 5.5 4.3 56 3.9 NW 32 41 17 22 1007.2 1007.2 0.0
25/11:30am 13.0 5.9 5.7 61 3.4 NW 32 43 17 23 1007.6 1007.6 0.0
25/11:00am 12.4 4.5 6.0 65 3.0 NW 37 48 20 26 1007.7 1007.7 0.0
25/10:30am 11.9 3.7 6.6 70 2.5 WNW 39 48 21 26 1008.0 1008.0 0.0
25/10:00am 11.3 2.8 7.0 75 2.1 WNW 41 50 22 27 1007.9 1007.9 0.0
25/09:30am 10.0 1.9 6.9 81 1.5 WNW 39 50 21 27 1007.8 1007.8 0.0
25/09:01am 9.8 1.7 7.1 83 1.3 WNW 39 57 21 31 1007.6 1007.6 0.0
25/09:00am 9.8 1.7 7.2 84 1.2 WNW 39 50 21 27 1007.7 1007.7 0.0
25/08:30am 9.3 2.4 6.6 83 1.3 WNW 32 41 17 22 1007.9 1007.9 0.0
25/08:00am 9.1 2.9 6.2 82 1.3 WNW 28 35 15 19 1007.6 1007.6 0.0
25/07:30am 9.5 3.8 6.6 82 1.4 WNW 26 37 14 20 1007.2 1007.2 0.0
25/07:00am 9.1 3.7 6.4 83 1.3 WNW 24 37 13 20 1006.7 1006.7 0.0
25/06:30am 8.7 2.7 5.4 80 1.5 NW 26 35 14 19 1006.2 1006.2 0.0
25/06:00am 8.5 1.1 5.1 79 1.5 WNW 33 43 18 23 1005.7 1005.7 0.0
25/05:30am 8.9 0.0 5.1 77 1.7 WNW 41 50 22 27 1005.1 1005.1 0.0
25/05:00am 8.6 2.1 4.8 77 1.7 NW 28 41 15 22 1004.8 1004.8 0.0
25/04:30am 8.8 1.6 4.8 76 1.8 NW 32 46 17 25 1004.7 1004.7 0.0
25/04:00am 8.4 2.6 4.4 76 1.8 NW 24 33 13 18 1004.7 1004.7 0.0
25/03:30am 8.2 2.8 4.4 77 1.7 NW 22 30 12 16 1004.5 1004.5 0.0
25/03:00am 7.5 3.0 4.1 79 1.5 NNW 17 24 9 13 1004.5 1004.5 0.0
25/02:30am 7.4 2.9 4.2 80 1.4 NNW 17 22 9 12 1004.6 1004.6 0.0
25/02:00am 7.2 2.3 4.0 80 1.4 NNW 19 24 10 13 1004.4 1004.4 0.0
25/01:30am 7.2 2.3 4.2 81 1.3 NNW 19 20 10 11 1004.4 1004.4 0.0
25/01:00am 7.4 2.3 4.2 80 1.4 NNW 20 26 11 14 1004.3 1004.3 0.0
25/12:30am 7.7 1.9 4.3 79 1.5 NW 24 30 13 16 1004.2 1004.2 0.0
25/12:00am 7.9 2.1 4.3 78 1.6 NW 24 32 13 17 1004.0 1004.0 0.0
 
Date/Time
EST
Temp
°C
App
Temp
°C
Dew
Point
°C
Rel
Hum
%
Delta-T
°C
Wind Press
QNH
hPa
Press
MSL
hPa
Rain since
9am
mm
Dir  Spd
km/h
Gust
km/h
Spd
kts
Gust
kts
24/11:30pm 7.9 1.3 4.3 78 1.6 NNW 28 33 15 18 1004.1 1004.1 0.0
24/11:00pm 7.8 2.0 4.2 78 1.6 NNW 24 32 13 17 1004.1 1004.1 0.0
24/10:30pm 8.2 2.4 4.4 77 1.7 NNW 24 30 13 16 1004.0 1004.0 0.0
24/10:00pm 8.2 3.2 4.6 78 1.6 NNW 20 32 11 17 1004.2 1004.2 0.0
24/09:30pm 8.4 3.6 4.8 78 1.6 N 19 26 10 14 1004.1 1004.1 0.0
24/09:00pm 8.2 3.5 5.0 80 1.4 N 19 26 10 14 1004.2 1004.2 0.0
24/08:30pm 8.3 3.4 4.9 79 1.5 N 20 28 11 15 1004.3 1004.3 0.0
24/08:00pm 9.0 3.4 5.2 77 1.7 NNW 24 32 13 17 1004.0 1004.0 0.0
24/07:30pm 8.9 3.4 6.0 82 1.3 N 24 35 13 19 1004.2 1004.2 0.0
24/07:00pm 8.2 4.1 6.2 87 0.9 NNE 17 22 9 12 1004.4 1004.4 0.0
24/06:30pm 8.5 3.9 5.6 82 1.3 NNE 19 22 10 12 1004.2 1004.2 0.0
24/06:00pm 9.3 4.5 4.7 73 2.1 NNE 19 24 10 13 1003.9 1003.9 0.0
24/05:30pm 9.3 5.1 5.7 78 1.6 NNE 17 22 9 12 1003.7 1003.7 0.0
24/05:00pm 9.5 6.0 5.3 75 1.9 N 13 19 7 10 1004.2 1004.2 0.0
24/04:30pm 10.4 4.7 4.8 68 2.5 N 24 37 13 20 1004.4 1004.4 0.0
24/04:00pm 10.6 5.7 4.9 68 2.6 N 20 28 11 15 1004.9 1004.9 0.0
24/03:30pm 11.0 6.1 5.3 68 2.6 NNW 20 30 11 16 1005.2 1005.2 0.0
24/03:00pm 11.4 5.0 5.1 65 2.9 NNW 28 35 15 19 1005.4 1005.4 0.0
24/02:30pm 11.6 4.4 4.8 63 3.1 NNW 32 41 17 22 1005.5 1005.5 0.0
24/02:00pm 12.7 5.9 4.9 59 3.6 NNW 30 41 16 22 1005.7 1005.7 0.0
24/01:30pm 11.5 3.6 4.5 62 3.2 NNW 35 48 19 26 1006.1 1006.1 0.0
24/01:07pm 11.3 1.9 4.3 62 3.1 NNW 43 61 23 33 1006.4 1006.4 0.0
24/01:00pm 11.2 2.6 4.4 63 3.1 NNW 39 54 21 29 1006.5 1006.5 0.0
24/12:30pm 11.4 3.2 4.8 64 3.0 NNW 37 52 20 28 1007.0 1007.0 0.0
24/12:11pm 11.4 2.0 4.6 63 3.1 NNW 43 61 23 33 1007.1 1007.1 0.0
24/12:00pm 11.8 4.3 4.5 61 3.3 NNW 33 46 18 25 1007.4 1007.4 0.0
24/11:49am 11.6 3.9 5.3 65 2.9 NNW 35 54 19 29 1007.7 1007.7 0.0
24/11:30am 11.1 2.1 4.6 64 2.9 NNW 41 50 22 27 1008.0 1008.0 0.0
24/11:16am 11.3 3.9 5.0 65 2.9 NNW 33 52 18 28 1008.3 1008.3 0.0
24/11:00am 10.8 2.6 4.9 67 2.7 NNW 37 52 20 28 1008.8 1008.8 0.0
24/10:30am 10.2 1.6 4.6 68 2.5 NNW 39 46 21 25 1009.1 1009.1 0.0
24/10:00am 9.2 2.0 4.8 74 2.0 NNW 32 44 17 24 1009.1 1009.1 0.0
24/09:30am 8.9 4.2 5.1 77 1.7 NNW 19 32 10 17 1009.5 1009.5 0.0
24/09:00am 7.6 2.2 4.4 80 1.4 NW 22 28 12 15 1009.8 1009.8 1.6
24/08:30am 5.6 0.6 3.6 87 0.8 N 19 24 10 13 1009.9 1009.9 1.6
24/08:00am 4.1 -1.6 2.6 90 0.6 N 22 28 12 15 1009.9 1009.9 1.6
24/07:30am 4.1 -1.1 2.5 89 0.6 N 19 24 10 13 1010.0 1010.0 1.6
24/07:00am 4.7 -0.5 2.6 86 0.9 NNW 19 20 10 11 1010.1 1010.1 1.6
24/06:30am 4.9 -0.2 2.9 87 0.8 NNW 19 24 10 13 1010.0 1010.0 1.6
24/06:00am 4.6 -0.2 2.8 88 0.7 NNW 17 20 9 11 1010.1 1010.1 1.6
24/05:30am 4.0 0.0 3.0 93 0.4 N 13 19 7 10 1010.3 1010.3 1.6
24/05:00am 3.6 -0.1 2.3 91 0.5 NNE 11 15 6 8 1010.8 1010.8 1.6
24/04:30am 3.3 -0.1 2.0 91 0.5 N 9 15 5 8 1011.2 1011.2 1.6
24/04:00am 4.5 -0.7 2.7 88 0.7 NNW 19 20 10 11 1011.5 1011.5 1.6
24/03:30am 4.8 -0.3 2.8 87 0.8 NW 19 22 10 12 1011.7 1011.7 1.6
24/03:00am 2.7 1.1 2.3 97 0.2 CALM 0 6 0 3 1011.9 1011.9 1.6
24/02:30am 3.1 0.4 2.7 97 0.2 N 6 7 3 4 1011.9 1011.9 1.6
24/02:00am 3.1 1.5 2.4 95 0.3 CALM 0 6 0 3 1012.0 1012.0 1.6
24/01:30am 4.1 2.7 3.5 96 0.2 CALM 0 0 0 0 1012.0 1012.0 1.6
24/01:00am 4.7 2.2 4.0 95 0.3 N 6 7 3 4 1012.0 1012.0 1.6
24/12:30am 4.2 2.9 4.1 99 0.0 CALM 0 0 0 0 1012.3 1012.3 1.6
24/12:00am 3.3 1.8 2.9 97 0.2 CALM 0 0 0 0 1012.5 1012.5 1.6
 
Date/Time
EST
Temp
°C
App
Temp
°C
Dew
Point
°C
Rel
Hum
%
Delta-T
°C
Wind Press
QNH
hPa
Press
MSL
hPa
Rain since
9am
mm
Dir  Spd
km/h
Gust
km/h
Spd
kts
Gust
kts
23/11:30pm 4.9 1.5 4.2 95 0.3 NW 11 15 6 8 1012.6 1012.6 1.6
23/11:00pm 5.1 1.4 4.2 94 0.4 WNW 13 15 7 8 1012.8 1012.8 1.6
23/10:30pm 6.3 1.9 4.8 90 0.7 NW 17 26 9 14 1012.8 1012.8 1.6
23/10:00pm 6.2 2.3 5.3 94 0.4 WNW 15 19 8 10 1012.7 1012.7 1.6
23/09:30pm 6.8 1.6 5.7 93 0.5 WNW 22 28 12 15 1012.8 1012.8 1.6
23/09:00pm 6.6 2.0 5.6 93 0.4 WNW 19 24 10 13 1012.9 1012.9 1.4
23/08:30pm 6.7 1.8 5.0 89 0.7 NW 20 26 11 14 1012.4 1012.4 1.4

Other Formats:

Comma delimited format used in spreadsheet applications
http://www.bom.gov.au/fwo/IDV60801/IDV60801.94854.axf

JavaScript Object Notation format (JSON) in row-major order
http://www.bom.gov.au/fwo/IDV60801/IDV60801.94854.json